createdAt,value
2018-11-12T00:00:38.270Z,79.58
2018-11-12T00:01:38.260Z,79.58
2018-11-12T00:02:38.245Z,79.3
2018-11-12T00:03:38.234Z,78.72
2018-11-12T00:04:38.226Z,78.63
2018-11-12T00:05:38.209Z,77.39
2018-11-12T00:06:38.198Z,76.44
2018-11-12T00:07:38.193Z,75.3
2018-11-12T00:08:38.178Z,74.54
2018-11-12T00:09:38.163Z,75.02
2018-11-12T00:10:38.153Z,75.78
2018-11-12T00:11:38.140Z,76.06
2018-11-12T00:12:38.130Z,76.82
2018-11-12T00:13:38.116Z,77.39
2018-11-12T00:14:38.106Z,76.82
2018-11-12T00:15:37.839Z,77.01
2018-11-12T00:16:38.078Z,76.44
2018-11-12T00:17:37.817Z,75.87
2018-11-12T00:18:38.052Z,75.4
2018-11-12T00:19:38.047Z,74.92
2018-11-12T00:20:38.030Z,75.4
2018-11-12T00:21:38.061Z,75.59
2018-11-12T00:22:38.014Z,75.4
2018-11-12T00:23:37.994Z,75.96
2018-11-12T00:24:37.986Z,76.06
2018-11-12T00:25:37.972Z,76.35
2018-11-12T00:26:37.958Z,75.78
2018-11-12T00:27:37.697Z,75.4
2018-11-12T00:28:37.939Z,74.92
2018-11-12T00:29:37.672Z,74.82
2018-11-12T00:30:37.914Z,75.49
2018-11-12T00:31:37.904Z,75.11
2018-11-12T00:32:37.887Z,74.54
2018-11-12T00:33:37.875Z,74.44
2018-11-12T00:34:37.868Z,74.44
2018-11-12T00:35:37.858Z,74.35
2018-11-12T00:36:37.837Z,74.26
2018-11-12T00:37:37.828Z,73.69
2018-11-12T00:38:37.816Z,73.3
2018-11-12T00:39:37.814Z,73.69
2018-11-12T00:40:37.790Z,74.07
2018-11-12T00:41:37.781Z,74.35
2018-11-12T00:42:37.771Z,73.11
2018-11-12T00:43:37.757Z,72.64
2018-11-12T00:44:37.746Z,71.78
2018-11-12T00:45:37.482Z,71.97
2018-11-12T00:46:37.468Z,71.5
2018-11-12T00:47:37.458Z,71.97
2018-11-12T00:48:37.697Z,71.88
2018-11-12T00:49:37.685Z,73.02
2018-11-12T00:50:37.673Z,73.3
2018-11-12T00:51:37.661Z,74.26
2018-11-12T00:52:37.652Z,73.21
2018-11-12T00:53:37.386Z,71.22
2018-11-12T00:54:37.623Z,71.59
2018-11-12T00:55:37.620Z,72.16
2018-11-12T00:56:37.600Z,73.02
2018-11-12T00:57:37.627Z,73.21
2018-11-12T00:58:37.325Z,73.69
2018-11-12T00:59:37.561Z,74.16
2018-11-12T01:00:37.551Z,74.16
2018-11-12T01:01:37.289Z,74.16
2018-11-12T01:02:37.276Z,74.44
2018-11-12T01:03:37.516Z,73.88
2018-11-12T01:04:37.254Z,74.44
2018-11-12T01:05:37.502Z,73.69
2018-11-12T01:06:37.483Z,73.21
2018-11-12T01:07:37.473Z,73.4
2018-11-12T01:08:37.202Z,72.83
2018-11-12T01:09:37.447Z,73.3
2018-11-12T01:10:37.435Z,73.11
2018-11-12T01:11:37.422Z,73.59
2018-11-12T01:12:37.413Z,73.4
2018-11-12T01:13:37.397Z,74.16
2018-11-12T01:14:37.135Z,74.35
2018-11-12T01:15:37.386Z,74.54
2018-11-12T01:16:37.375Z,73.78
2018-11-12T01:17:37.360Z,74.44
2018-11-12T01:18:37.338Z,73.88
2018-11-12T01:19:37.331Z,74.54
2018-11-12T01:20:37.062Z,74.63
2018-11-12T01:21:37.302Z,74.92
2018-11-12T01:22:37.039Z,74.07
2018-11-12T01:23:37.026Z,73.97
2018-11-12T01:24:37.267Z,74.63
2018-11-12T01:25:37.004Z,74.26
2018-11-12T01:26:37.243Z,73.97
2018-11-12T01:27:37.228Z,74.26
2018-11-12T01:28:37.223Z,74.63
2018-11-12T01:29:37.207Z,74.63
2018-11-12T01:30:37.209Z,74.16
2018-11-12T01:31:37.186Z,73.97
2018-11-12T01:32:36.920Z,74.26
2018-11-12T01:33:37.158Z,73.59
2018-11-12T01:34:37.147Z,73.11
2018-11-12T01:35:37.146Z,73.49
2018-11-12T01:36:37.130Z,72.92
2018-11-12T01:37:36.858Z,72.92
2018-11-12T01:38:37.099Z,72.35
2018-11-12T01:39:36.836Z,70.99
2018-11-12T01:40:37.075Z,70.51
2018-11-12T01:41:37.063Z,69.94
2018-11-12T01:42:36.803Z,69.85
2018-11-12T01:43:37.088Z,69.85
2018-11-12T01:44:36.773Z,68.9
2018-11-12T01:45:37.014Z,68.42
2018-11-12T01:46:37.003Z,68.99
2018-11-12T01:47:36.992Z,69.27
2018-11-12T01:48:36.726Z,69.66
2018-11-12T01:49:36.966Z,68.99
2018-11-12T01:50:36.959Z,68.9
2018-11-12T01:51:36.945Z,69.18
2018-11-12T01:52:36.931Z,68.71
2018-11-12T01:53:36.672Z,68.9
2018-11-12T01:54:36.656Z,67.66
2018-11-12T01:55:36.889Z,68.13
2018-11-12T01:56:36.880Z,68.13
2018-11-12T01:57:36.870Z,67.47
2018-11-12T01:58:36.608Z,67.09
2018-11-12T01:59:36.849Z,67.09
2018-11-12T02:00:36.832Z,66.05
2018-11-12T02:01:36.877Z,65.19
2018-11-12T02:02:36.809Z,65.28
2018-11-12T02:03:36.797Z,64.9
2018-11-12T02:04:36.829Z,65.09
2018-11-12T02:05:36.788Z,65.41
2018-11-12T02:06:36.762Z,66.33
2018-11-12T02:07:36.747Z,66.74
2018-11-12T02:08:36.577Z,66.42
2018-11-12T02:09:36.727Z,67.32
2018-11-12T02:10:36.711Z,67.79
2018-11-12T02:11:36.707Z,68.17
2018-11-12T02:12:36.693Z,68.65
2018-11-12T02:13:36.670Z,69.41
2018-11-12T02:14:36.702Z,69.31
2018-11-12T02:15:36.659Z,69.31
2018-11-12T02:16:36.635Z,69.12
2018-11-12T02:17:36.624Z,69.6
2018-11-12T02:18:36.621Z,70.17
2018-11-12T02:19:36.604Z,70.26
2018-11-12T02:20:36.592Z,69.6
2018-11-12T02:21:36.712Z,69.02
2018-11-12T02:22:36.671Z,70.07
2018-11-12T02:23:36.551Z,69.88
2018-11-12T02:24:36.541Z,70.64
2018-11-12T02:25:36.531Z,71.22
2018-11-12T02:26:36.520Z,71.41
2018-11-12T02:27:36.505Z,72.07
2018-11-12T02:28:36.499Z,72.64
2018-11-12T02:29:36.504Z,72.45
2018-11-12T02:30:36.544Z,73.3
2018-11-12T02:31:36.458Z,73.4
2018-11-12T02:32:36.463Z,73.78
2018-11-12T02:33:36.441Z,74.07
2018-11-12T02:34:36.422Z,74.26
2018-11-12T02:35:36.415Z,74.44
2018-11-12T02:37:08.259Z,75.78
2018-11-12T02:37:36.388Z,75.96
2018-11-12T02:38:36.378Z,77.11
2018-11-12T02:39:36.108Z,77.49
2018-11-12T02:40:36.348Z,78.25
2018-11-12T02:41:36.088Z,78.16
2018-11-12T02:42:36.093Z,78.82
2018-11-12T02:43:36.317Z,79.52
2018-11-12T02:44:36.320Z,79.91
2018-11-12T02:45:36.288Z,80.47
2018-11-12T02:46:36.284Z,80.86
2018-11-12T02:47:36.015Z,81.43
2018-11-12T02:48:36.005Z,81.43
2018-11-12T02:49:36.244Z,81.71
2018-11-12T02:50:36.232Z,81.9
2018-11-12T02:51:35.966Z,82.09
2018-11-12T02:52:36.215Z,83.23
2018-11-12T02:53:36.195Z,83.42
2018-11-12T02:54:36.188Z,83.52
2018-11-12T02:55:35.919Z,83.9
2018-11-12T02:56:36.157Z,85.04
2018-11-12T02:57:36.370Z,85.71
2018-11-12T02:58:36.142Z,86.38
2018-11-12T02:59:36.124Z,86.76
2018-11-12T03:00:36.114Z,87.52
2018-11-12T03:01:35.847Z,88.18
2018-11-12T03:02:35.839Z,87.99
2018-11-12T03:03:35.827Z,88.46
2018-11-12T03:04:36.068Z,88.46
2018-11-12T03:05:36.054Z,88.28
2018-11-12T03:06:36.046Z,88.18
2018-11-12T03:07:36.192Z,87.52
2018-11-12T03:08:36.032Z,87.04
2018-11-12T03:09:36.005Z,87.52
2018-11-12T03:10:35.996Z,87.42
2018-11-12T03:11:35.735Z,87.23
2018-11-12T03:12:35.720Z,86.94
2018-11-12T03:13:35.964Z,86.14
2018-11-12T03:14:35.954Z,85.38
2018-11-12T03:15:35.944Z,84.52
2018-11-12T03:16:35.927Z,84.72
2018-11-12T03:17:35.914Z,84.43
2018-11-12T03:18:35.653Z,84.24
2018-11-12T03:19:35.891Z,83.76
2018-11-12T03:20:35.876Z,83.23
2018-11-12T03:21:35.866Z,83.19
2018-11-12T03:22:35.605Z,82.57
2018-11-12T03:23:35.854Z,82.38
2018-11-12T03:24:35.839Z,83.14
2018-11-12T03:25:35.826Z,83.62
2018-11-12T03:26:35.808Z,84
2018-11-12T03:27:35.905Z,83.9
2018-11-12T03:28:35.794Z,84.47
2018-11-12T03:29:35.775Z,84.85
2018-11-12T03:30:35.771Z,85.04
2018-11-12T03:31:35.503Z,85.99
2018-11-12T03:32:35.756Z,86.47
2018-11-12T03:33:35.749Z,86.85
2018-11-12T03:34:35.719Z,88.18
2018-11-12T03:35:35.705Z,88.46
2018-11-12T03:36:35.697Z,89.89
2018-11-12T03:37:35.682Z,91.08
2018-11-12T03:38:35.421Z,92.22
2018-11-12T03:39:35.826Z,93.65
2018-11-12T03:40:35.654Z,94.42
2018-11-12T03:41:35.636Z,94.6
2018-11-12T03:42:35.371Z,95.27
2018-11-12T03:43:35.622Z,95.75
2018-11-12T03:44:35.602Z,95.75
2018-11-12T03:45:35.338Z,95.94
2018-11-12T03:46:35.591Z,96.12
2018-11-12T03:47:35.317Z,97.17
2018-11-12T03:48:35.555Z,96.79
2018-11-12T03:49:35.547Z,95.94
2018-11-12T03:50:35.535Z,96.51
2018-11-12T03:51:35.528Z,96.89
2018-11-12T03:52:35.513Z,96.89
2018-11-12T03:53:35.252Z,97.55
2018-11-12T03:54:35.492Z,98.22
2018-11-12T03:55:35.227Z,97.93
2018-11-12T03:56:35.467Z,98.6
2018-11-12T03:57:35.462Z,98.5
2018-11-12T03:58:35.446Z,99.17
2018-11-12T03:59:35.434Z,99.36
2018-11-12T04:00:35.425Z,98.98
2018-11-12T04:01:35.414Z,99.17
2018-11-12T04:02:35.402Z,98.6
2018-11-12T04:03:35.389Z,99.65
2018-11-12T04:04:35.383Z,99.74
2018-11-12T04:05:35.378Z,99.46
2018-11-12T04:06:35.359Z,99.55
2018-11-12T04:07:35.342Z,99.99
2018-11-12T04:08:35.334Z,99.74
2018-11-12T04:09:35.332Z,99.55
2018-11-12T04:10:35.055Z,99.74
2018-11-12T04:11:35.299Z,99.65
2018-11-12T04:12:35.040Z,99.93
2018-11-12T04:13:35.282Z,99.74
2018-11-12T04:14:35.277Z,99.99
2018-11-12T04:15:35.257Z,99.55
2018-11-12T04:16:35.249Z,99.27
2018-11-12T04:17:34.983Z,98.03
2018-11-12T04:18:35.225Z,98.22
2018-11-12T04:19:35.222Z,98.13
2018-11-12T04:20:35.210Z,98.32
2018-11-12T04:21:35.187Z,98.13
2018-11-12T04:22:35.183Z,98.13
2018-11-12T04:23:35.168Z,98.13
2018-11-12T04:24:35.153Z,98.13
2018-11-12T04:25:34.894Z,97.93
2018-11-12T04:26:35.139Z,97.17
2018-11-12T04:27:34.871Z,97.55
2018-11-12T04:28:35.111Z,96.31
2018-11-12T04:29:35.096Z,95.46
2018-11-12T04:30:35.097Z,95.27
2018-11-12T04:31:35.081Z,94.98
2018-11-12T04:32:35.066Z,95.08
2018-11-12T04:33:35.063Z,95.22
2018-11-12T04:34:34.792Z,95.7
2018-11-12T04:35:34.784Z,96.03
2018-11-12T04:36:35.022Z,95.89
2018-11-12T04:37:35.010Z,96.03
2018-11-12T04:38:35.005Z,96.65
2018-11-12T04:39:34.987Z,96.7
2018-11-12T04:40:34.974Z,96.26
2018-11-12T04:41:34.964Z,96.17
2018-11-12T04:42:34.954Z,96.08
2018-11-12T04:43:34.939Z,95.6
2018-11-12T04:44:34.928Z,95.03
2018-11-12T04:45:35.019Z,94.84
2018-11-12T04:46:34.658Z,94.56
2018-11-12T04:47:34.897Z,94.18
2018-11-12T04:48:34.887Z,94.37
2018-11-12T04:49:34.623Z,94.37
2018-11-12T04:50:34.612Z,94.93
2018-11-12T04:51:34.850Z,94.93
2018-11-12T04:52:34.840Z,95.22
2018-11-12T04:53:34.988Z,95.89
2018-11-12T04:54:34.817Z,96.12
2018-11-12T04:55:34.558Z,96.31
2018-11-12T04:56:34.796Z,96.98
2018-11-12T04:57:34.783Z,97.27
2018-11-12T04:58:34.777Z,97.46
2018-11-12T04:59:34.767Z,98.13
2018-11-12T05:00:34.751Z,98.79
2018-11-12T05:01:34.743Z,98.13
2018-11-12T05:02:34.478Z,98.22
2018-11-12T05:03:34.718Z,98.32
2018-11-12T05:04:34.707Z,98.79
2018-11-12T05:05:34.695Z,98.88
2018-11-12T05:06:34.687Z,98.98
2018-11-12T05:07:34.957Z,99.17
2018-11-12T05:08:34.669Z,98.98
2018-11-12T05:09:34.650Z,99.08
2018-11-12T05:10:34.640Z,99.55
2018-11-12T05:11:34.376Z,99.65
2018-11-12T05:12:34.364Z,99.08
2018-11-12T05:13:34.602Z,98.88
2018-11-12T05:14:34.595Z,99.46
2018-11-12T05:15:34.586Z,99.65
2018-11-12T05:16:34.692Z,99.27
2018-11-12T05:17:34.561Z,99.55
2018-11-12T05:18:34.550Z,99.99
2018-11-12T05:19:34.539Z,99.84
2018-11-12T05:20:34.528Z,99.55
2018-11-12T05:21:34.265Z,99.99
2018-11-12T05:22:34.506Z,99.99
2018-11-12T05:23:34.246Z,99.55
2018-11-12T05:24:34.234Z,99.99
2018-11-12T05:25:34.485Z,99.99
2018-11-12T05:26:34.461Z,99.99
2018-11-12T05:27:34.446Z,99.99
2018-11-12T05:28:34.436Z,99.99
2018-11-12T05:29:34.183Z,99.84
2018-11-12T05:30:34.418Z,99.55
2018-11-12T05:31:34.410Z,99.74
2018-11-12T05:32:34.394Z,98.98
2018-11-12T05:33:34.380Z,99.36
2018-11-12T05:34:34.375Z,98.79
2018-11-12T05:35:34.114Z,98.79
2018-11-12T05:36:34.350Z,98.6
2018-11-12T05:37:34.429Z,98.69
2018-11-12T05:38:34.326Z,98.69
2018-11-12T05:39:34.066Z,98.69
2018-11-12T05:40:34.052Z,98.5
2018-11-12T05:41:34.290Z,98.98
2018-11-12T05:42:34.281Z,99.08
2018-11-12T05:43:34.269Z,99.46
2018-11-12T05:44:34.009Z,99.08
2018-11-12T05:45:34.256Z,99.17
2018-11-12T05:46:33.985Z,99.46
2018-11-12T05:47:34.249Z,98.98
2018-11-12T05:48:34.218Z,98.6
2018-11-12T05:49:34.206Z,98.41
2018-11-12T05:50:34.244Z,98.98
2018-11-12T05:51:34.336Z,98.79
2018-11-12T05:52:34.172Z,99.17
2018-11-12T05:53:34.162Z,99.27
2018-11-12T05:54:34.151Z,99.36
2018-11-12T05:55:34.141Z,99.55
2018-11-12T05:56:34.128Z,99.36
2018-11-12T05:57:34.116Z,99.84
2018-11-12T05:58:34.106Z,99.55
2018-11-12T05:59:34.099Z,99.65
2018-11-12T06:00:33.831Z,99.99
2018-11-12T06:01:34.072Z,99.99
2018-11-12T06:02:34.061Z,99.93
2018-11-12T06:03:34.050Z,99.99
2018-11-12T06:04:34.039Z,99.99
2018-11-12T06:05:34.026Z,99.99
2018-11-12T06:06:34.017Z,99.99
2018-11-12T06:07:34.015Z,99.99
2018-11-12T06:08:33.994Z,99.99
2018-11-12T06:09:33.732Z,99.99
2018-11-12T06:10:34.051Z,99.99
2018-11-12T06:11:33.707Z,99.99
2018-11-12T06:12:33.945Z,99.99
2018-11-12T06:13:33.936Z,99.99
2018-11-12T06:14:33.928Z,99.99
2018-11-12T06:15:33.913Z,99.99
2018-11-12T06:16:33.915Z,99.99
2018-11-12T06:17:33.902Z,99.99
2018-11-12T06:18:33.880Z,99.99
2018-11-12T06:19:33.620Z,99.99
2018-11-12T06:20:33.869Z,99.99
2018-11-12T06:21:33.855Z,99.99
2018-11-12T06:22:33.922Z,99.99
2018-11-12T06:23:33.831Z,99.99
2018-11-12T06:24:33.818Z,99.99
2018-11-12T06:25:33.554Z,99.99
2018-11-12T06:26:33.793Z,99.99
2018-11-12T06:27:33.785Z,99.99
2018-11-12T06:28:33.519Z,99.99
2018-11-12T06:29:33.508Z,99.99
2018-11-12T06:30:33.753Z,99.99
2018-11-12T06:31:33.735Z,99.99
2018-11-12T06:32:33.725Z,99.99
2018-11-12T06:33:33.716Z,99.99
2018-11-12T06:34:33.454Z,99.99
2018-11-12T06:35:33.696Z,99.99
2018-11-12T06:36:33.745Z,99.99
2018-11-12T06:37:33.674Z,99.99
2018-11-12T06:38:33.665Z,99.99
2018-11-12T06:39:33.650Z,99.99
2018-11-12T06:40:33.640Z,99.99
2018-11-12T06:41:33.376Z,99.99
2018-11-12T06:42:33.768Z,99.99
2018-11-12T06:43:33.355Z,99.99
2018-11-12T06:44:33.596Z,99.99
2018-11-12T06:45:33.591Z,99.99
2018-11-12T06:46:33.322Z,99.99
2018-11-12T06:47:33.561Z,99.99
2018-11-12T06:48:33.558Z,99.99
2018-11-12T06:49:33.543Z,99.99
2018-11-12T06:50:33.531Z,99.99
2018-11-12T06:51:33.526Z,99.99
2018-11-12T06:52:33.512Z,99.99
2018-11-12T06:53:33.368Z,99.99
2018-11-12T06:54:33.486Z,99.99
2018-11-12T06:55:33.474Z,99.99
2018-11-12T06:56:33.212Z,99.99
2018-11-12T06:57:33.455Z,99.99
2018-11-12T06:58:33.445Z,99.99
2018-11-12T06:59:33.434Z,99.99
2018-11-12T07:00:33.426Z,99.99
2018-11-12T07:01:33.418Z,99.99
2018-11-12T07:02:33.402Z,99.99
2018-11-12T07:03:33.390Z,99.99
2018-11-12T07:04:33.379Z,99.99
2018-11-12T07:05:33.371Z,99.99
2018-11-12T07:06:33.604Z,99.99
2018-11-12T07:07:33.349Z,99.99
2018-11-12T07:08:33.338Z,99.99
2018-11-12T07:09:33.077Z,99.99
2018-11-12T07:10:33.320Z,99.99
2018-11-12T07:11:33.310Z,99.99
2018-11-12T07:12:33.293Z,99.99
2018-11-12T07:13:33.288Z,99.99
2018-11-12T07:14:33.021Z,99.99
2018-11-12T07:15:33.274Z,99.99
2018-11-12T07:16:33.251Z,99.99
2018-11-12T07:17:33.246Z,99.99
2018-11-12T07:18:33.234Z,99.99
2018-11-12T07:19:32.972Z,99.99
2018-11-12T07:20:33.217Z,99.99
2018-11-12T07:21:33.200Z,99.99
2018-11-12T07:22:32.941Z,99.99
2018-11-12T07:23:33.182Z,99.99
2018-11-12T07:24:33.177Z,99.99
2018-11-12T07:25:33.162Z,99.99
2018-11-12T07:26:33.148Z,99.99
2018-11-12T07:27:33.141Z,99.99
2018-11-12T07:28:32.878Z,99.99
2018-11-12T07:29:33.124Z,99.99
2018-11-12T07:30:32.896Z,99.99
2018-11-12T07:31:32.846Z,99.99
2018-11-12T07:32:32.837Z,99.99
2018-11-12T07:33:32.829Z,99.99
2018-11-12T07:34:33.068Z,99.99
2018-11-12T07:35:32.805Z,99.99
2018-11-12T07:36:33.057Z,99.99
2018-11-12T07:37:32.786Z,99.99
2018-11-12T07:38:32.775Z,99.99
2018-11-12T07:39:33.015Z,99.99
2018-11-12T07:40:33.011Z,99.99
2018-11-12T07:41:33.002Z,99.99
2018-11-12T07:42:32.988Z,99.99
2018-11-12T07:43:32.978Z,99.99
2018-11-12T07:44:32.973Z,99.99
2018-11-12T07:45:32.967Z,99.99
2018-11-12T07:46:32.947Z,99.99
2018-11-12T07:47:32.935Z,99.99
2018-11-12T07:48:32.956Z,99.99
2018-11-12T07:49:32.667Z,99.99
2018-11-12T07:50:32.911Z,99.99
2018-11-12T07:51:33.161Z,99.99
2018-11-12T07:52:32.890Z,99.99
2018-11-12T07:53:32.629Z,99.99
2018-11-12T07:54:32.866Z,99.99
2018-11-12T07:55:32.860Z,99.99
2018-11-12T07:56:33.126Z,99.99
2018-11-12T07:57:32.839Z,99.99
2018-11-12T07:58:32.836Z,99.99
2018-11-12T07:59:32.826Z,99.99
2018-11-12T08:00:32.821Z,99.99
2018-11-12T08:01:32.549Z,99.99
2018-11-12T08:02:32.792Z,99.99
2018-11-12T08:03:32.974Z,99.99
2018-11-12T08:04:32.773Z,99.99
2018-11-12T08:05:32.512Z,99.99
2018-11-12T08:06:32.505Z,99.99
2018-11-12T08:07:32.495Z,99.99
2018-11-12T08:08:32.737Z,99.99
2018-11-12T08:09:32.885Z,99.99
2018-11-12T08:10:32.718Z,99.99
2018-11-12T08:11:32.706Z,99.99
2018-11-12T08:12:32.697Z,99.99
2018-11-12T08:13:32.438Z,99.99
2018-11-12T08:14:32.931Z,99.99
2018-11-12T08:15:32.679Z,99.99
2018-11-12T08:16:32.663Z,99.99
2018-11-12T08:17:33.394Z,99.99
2018-11-12T08:18:32.393Z,99.99
2018-11-12T08:19:32.634Z,99.99
2018-11-12T08:20:32.626Z,99.99
2018-11-12T08:21:32.367Z,99.99
2018-11-12T08:22:32.667Z,99.99
2018-11-12T08:23:32.601Z,99.99
2018-11-12T08:24:32.755Z,99.99
2018-11-12T08:25:32.589Z,99.99
2018-11-12T08:26:32.319Z,99.99
2018-11-12T08:27:32.849Z,99.99
2018-11-12T08:28:32.553Z,99.99
2018-11-12T08:29:32.309Z,99.99
2018-11-12T08:30:32.847Z,99.99
2018-11-12T08:31:32.524Z,99.99
2018-11-12T08:32:32.518Z,99.99
2018-11-12T08:33:32.504Z,99.99
2018-11-12T08:34:32.502Z,99.99
2018-11-12T08:35:32.237Z,99.99
2018-11-12T08:36:32.651Z,99.99
2018-11-12T08:37:32.475Z,99.99
2018-11-12T08:38:32.217Z,99.99
2018-11-12T08:39:32.787Z,99.99
2018-11-12T08:40:32.784Z,99.99
2018-11-12T08:41:32.433Z,99.99
2018-11-12T08:42:32.171Z,99.99
2018-11-12T08:43:32.415Z,99.99
2018-11-12T08:44:32.404Z,99.99
2018-11-12T08:45:32.397Z,99.99
2018-11-12T08:46:32.138Z,99.99
2018-11-12T08:47:32.380Z,99.99
2018-11-12T08:48:32.517Z,99.99
2018-11-12T08:49:32.641Z,99.99
2018-11-12T08:50:32.359Z,99.99
2018-11-12T08:51:32.343Z,99.99
2018-11-12T08:52:32.083Z,99.99
2018-11-12T08:53:32.324Z,99.99
2018-11-12T08:54:32.153Z,99.99
2018-11-12T08:55:32.462Z,99.99
2018-11-12T08:56:32.295Z,99.99
2018-11-12T08:57:32.289Z,99.99
2018-11-12T08:58:32.279Z,99.99
2018-11-12T08:59:32.357Z,99.99
2018-11-12T09:00:32.294Z,99.99
2018-11-12T09:01:32.262Z,99.99
2018-11-12T09:02:32.247Z,99.99
2018-11-12T09:03:32.235Z,99.99
2018-11-12T09:04:32.226Z,99.99
2018-11-12T09:05:31.966Z,99.99
2018-11-12T09:06:32.207Z,99.99
2018-11-12T09:07:32.199Z,99.99
2018-11-12T09:08:32.191Z,99.99
2018-11-12T09:09:32.190Z,99.99
2018-11-12T09:10:32.195Z,99.99
2018-11-12T09:11:32.165Z,99.99
2018-11-12T09:12:31.904Z,99.99
2018-11-12T09:13:32.307Z,99.99
2018-11-12T09:14:32.143Z,99.99
2018-11-12T09:15:32.227Z,99.99
2018-11-12T09:16:32.125Z,99.99
2018-11-12T09:17:31.863Z,99.99
2018-11-12T09:18:32.106Z,99.99
2018-11-12T09:19:32.106Z,99.99
2018-11-12T09:20:32.125Z,99.99
2018-11-12T09:21:32.077Z,99.99
2018-11-12T09:22:32.066Z,99.99
2018-11-12T09:23:32.066Z,99.99
2018-11-12T09:24:32.061Z,99.99
2018-11-12T09:25:32.043Z,99.99
2018-11-12T09:26:32.033Z,99.99
2018-11-12T09:27:32.032Z,99.99
2018-11-12T09:28:32.016Z,99.99
2018-11-12T09:29:32.210Z,99.99
2018-11-12T09:30:31.999Z,99.99
2018-11-12T09:31:32.649Z,99.99
2018-11-12T09:32:31.985Z,99.99
2018-11-12T09:33:31.736Z,99.99
2018-11-12T09:34:31.987Z,99.99
2018-11-12T09:35:31.963Z,99.99
2018-11-12T09:36:32.011Z,99.99
2018-11-12T09:37:32.401Z,99.99
2018-11-12T09:38:32.093Z,99.99
2018-11-12T09:39:32.018Z,99.99
2018-11-12T09:40:31.664Z,99.99
2018-11-12T09:41:32.148Z,99.99
2018-11-12T09:42:32.053Z,99.99
2018-11-12T09:43:31.902Z,99.99
2018-11-12T09:44:31.885Z,99.99
2018-11-12T09:45:31.624Z,99.99
2018-11-12T09:46:31.870Z,99.99
2018-11-12T09:47:31.897Z,99.99
2018-11-12T09:48:31.598Z,99.99
2018-11-12T09:49:31.843Z,99.99
2018-11-12T09:50:31.584Z,99.99
2018-11-12T09:51:31.830Z,99.99
2018-11-12T09:52:31.821Z,99.71
2018-11-12T09:53:31.840Z,99.99
2018-11-12T09:54:32.213Z,99.62
2018-11-12T09:55:31.978Z,99.8
2018-11-12T09:56:31.849Z,98.94
2018-11-12T09:57:31.527Z,99.04
2018-11-12T09:58:31.518Z,98.75
2018-11-12T09:59:31.957Z,97.89
2018-11-12T10:00:32.406Z,97.52
2018-11-12T10:01:31.892Z,98.18
2018-11-12T10:02:32.201Z,98.57
2018-11-12T10:03:34.742Z,97.99
2018-11-12T10:04:34.180Z,97.08
2018-11-12T10:05:35.780Z,95.46
2018-11-12T10:06:35.898Z,94.7
2018-11-12T10:07:37.347Z,94.89
2018-11-12T10:08:38.525Z,95.07
2018-11-12T10:09:36.897Z,93.55
2018-11-12T10:10:33.775Z,93.26
2018-11-12T10:11:38.791Z,93.79
2018-11-12T10:12:38.531Z,93.02
2018-11-12T10:13:36.950Z,94.93
2018-11-12T10:14:33.988Z,93.69
2018-11-12T10:15:40.484Z,92.83
2018-11-12T10:16:40.260Z,91.68
2018-11-12T10:17:34.682Z,90.1
2018-11-12T10:18:31.372Z,89.77
2018-11-12T10:19:31.381Z,87.57
2018-11-12T10:20:31.356Z,86.66
2018-11-12T10:21:31.605Z,86.76
2018-11-12T10:22:31.603Z,87.14
2018-11-12T10:23:31.338Z,86.76
2018-11-12T10:24:31.579Z,86.37
2018-11-12T10:25:31.573Z,86.08
2018-11-12T10:26:31.733Z,84.55
2018-11-12T10:27:31.561Z,82.54
2018-11-12T10:28:31.550Z,81.88
2018-11-12T10:29:31.548Z,81.02
2018-11-12T10:30:31.545Z,80.63
2018-11-12T10:31:31.281Z,81.21
2018-11-12T10:32:31.526Z,80.44
2018-11-12T10:33:31.528Z,80.16
2018-11-12T10:34:31.512Z,79
2018-11-12T10:35:31.520Z,78.38
2018-11-12T10:36:31.508Z,78.95
2018-11-12T10:37:31.242Z,78.86
2018-11-12T10:38:31.494Z,78.38
2018-11-12T10:39:31.482Z,77.99
2018-11-12T10:40:31.225Z,78.47
2018-11-12T10:41:31.468Z,77.8
2018-11-12T10:42:31.215Z,77.61
2018-11-12T10:43:31.459Z,77.33
2018-11-12T10:44:31.454Z,77.51
2018-11-12T10:45:31.450Z,76.94
2018-11-12T10:46:31.439Z,75.98
2018-11-12T10:47:31.436Z,74.87
2018-11-12T10:48:31.594Z,75.07
2018-11-12T10:49:31.421Z,74.58
2018-11-12T10:50:31.411Z,73.91
2018-11-12T10:51:31.156Z,73.15
2018-11-12T10:52:31.405Z,73.15
2018-11-12T10:53:31.451Z,73.54
2018-11-12T10:54:31.753Z,73.05
2018-11-12T10:55:32.069Z,72.86
2018-11-12T10:56:31.376Z,71.71
2018-11-12T10:57:31.374Z,70.66
2018-11-12T10:58:31.533Z,70.09
2018-11-12T10:59:31.125Z,70.47
2018-11-12T11:00:31.351Z,70.34
2018-11-12T11:01:31.354Z,70.43
2018-11-12T11:02:31.345Z,70.76
2018-11-12T11:03:31.333Z,70.95
2018-11-12T11:04:31.080Z,69.42
2018-11-12T11:05:31.337Z,69.42
2018-11-12T11:06:31.315Z,69.32
2018-11-12T11:07:31.314Z,69.32
2018-11-12T11:08:31.305Z,69.6
2018-11-12T11:09:31.046Z,69.32
2018-11-12T11:10:31.297Z,67.6
2018-11-12T11:11:31.036Z,67.21
2018-11-12T11:12:31.032Z,66.93
2018-11-12T11:13:31.276Z,66.45
2018-11-12T11:14:31.268Z,66.06
2018-11-12T11:15:31.088Z,65.58
2018-11-12T11:16:31.260Z,64.82
2018-11-12T11:17:31.257Z,65.11
2018-11-12T11:18:31.246Z,65.3
2018-11-12T11:19:31.005Z,64.53
2018-11-12T11:20:31.236Z,64.72
2018-11-12T11:21:30.975Z,65.68
2018-11-12T11:22:31.224Z,64.63
2018-11-12T11:23:31.219Z,63.48
2018-11-12T11:24:31.223Z,63.67
2018-11-12T11:25:31.215Z,63.39
2018-11-12T11:26:31.233Z,63.86
2018-11-12T11:27:31.194Z,64.05
2018-11-12T11:28:31.191Z,63.67
2018-11-12T11:29:31.189Z,63.39
2018-11-12T11:30:30.926Z,63.51
2018-11-12T11:31:31.172Z,63
2018-11-12T11:32:31.164Z,63.1
2018-11-12T11:33:31.158Z,62.17
2018-11-12T11:34:31.156Z,61.69
2018-11-12T11:35:31.147Z,62.07
2018-11-12T11:36:31.145Z,63.13
2018-11-12T11:37:31.143Z,63.22
2018-11-12T11:38:31.131Z,63.32
2018-11-12T11:39:30.874Z,63.7
2018-11-12T11:40:31.301Z,63.57
2018-11-12T11:41:31.115Z,63.76
2018-11-12T11:42:31.112Z,63.29
2018-11-12T11:43:31.099Z,63.48
2018-11-12T11:44:31.103Z,63.57
2018-11-12T11:45:31.106Z,64.43
2018-11-12T11:46:31.085Z,64.43
2018-11-12T11:47:31.456Z,65.01
2018-11-12T11:48:31.073Z,64.63
2018-11-12T11:49:31.065Z,64.63
2018-11-12T11:50:30.940Z,64.72
2018-11-12T11:51:31.056Z,63.96
2018-11-12T11:52:31.050Z,64.63
2018-11-12T11:53:30.793Z,64.43
2018-11-12T11:54:31.042Z,64.82
2018-11-12T11:55:31.032Z,65.11
2018-11-12T11:56:30.916Z,65.3
2018-11-12T11:57:30.871Z,64.82
2018-11-12T11:58:31.015Z,64.92
2018-11-12T11:59:31.015Z,65.84
2018-11-12T12:00:31.007Z,64.88
2018-11-12T12:01:30.746Z,64.79
2018-11-12T12:02:30.997Z,65.17
2018-11-12T12:03:30.985Z,65.45
2018-11-12T12:04:30.977Z,65.74
2018-11-12T12:05:30.972Z,66.41
2018-11-12T12:06:30.714Z,65.74
2018-11-12T12:07:30.960Z,66.51
2018-11-12T12:08:30.972Z,66.99
2018-11-12T12:09:30.696Z,66.51
2018-11-12T12:10:30.944Z,66.8
2018-11-12T12:11:30.686Z,65.74
2018-11-12T12:12:30.941Z,67.08
2018-11-12T12:13:31.018Z,66.32
2018-11-12T12:14:30.923Z,67.08
2018-11-12T12:15:30.912Z,67.18
2018-11-12T12:16:30.654Z,67.34
2018-11-12T12:17:30.690Z,67.43
2018-11-12T12:18:30.698Z,67.14
2018-11-12T12:19:30.892Z,67.05
2018-11-12T12:20:30.631Z,67.72
2018-11-12T12:21:30.625Z,67.72
2018-11-12T12:22:30.870Z,68.39
2018-11-12T12:23:30.866Z,69.06
2018-11-12T12:24:30.919Z,68.96
2018-11-12T12:25:31.160Z,69.54
2018-11-12T12:26:30.593Z,68.68
2018-11-12T12:27:30.977Z,69.06
2018-11-12T12:28:30.833Z,69.25
2018-11-12T12:29:30.835Z,69.54
2018-11-12T12:30:30.823Z,68.58
2018-11-12T12:31:30.817Z,68.49
2018-11-12T12:32:30.557Z,68.01
2018-11-12T12:33:30.806Z,68.55
2018-11-12T12:34:30.794Z,68.01
2018-11-12T12:35:30.588Z,68.58
2018-11-12T12:36:30.879Z,68.16
2018-11-12T12:37:30.805Z,68.35
2018-11-12T12:38:30.772Z,68.84
2018-11-12T12:39:30.509Z,69.5
2018-11-12T12:40:30.757Z,70.27
2018-11-12T12:41:30.497Z,69.7
2018-11-12T12:42:30.741Z,70.04
2018-11-12T12:43:30.733Z,70.36
2018-11-12T12:44:30.903Z,71.47
2018-11-12T12:45:31.117Z,72.14
2018-11-12T12:46:30.716Z,72.62
2018-11-12T12:47:30.457Z,72.62
2018-11-12T12:48:30.701Z,73
2018-11-12T12:49:30.828Z,73.67
2018-11-12T12:50:30.688Z,74.3
2018-11-12T12:51:30.811Z,74.49
2018-11-12T12:52:30.671Z,74.98
2018-11-12T12:53:30.418Z,75.64
2018-11-12T12:54:30.660Z,75.35